createdAt,value
2022-12-29T00:00:11.231Z,7.15
2022-12-29T00:02:38.268Z,9.88
2022-12-29T00:05:05.946Z,8.32
2022-12-29T00:07:33.009Z,8.25
2022-12-29T00:10:00.048Z,8.15
2022-12-29T00:12:47.172Z,9.27
2022-12-29T00:15:32.773Z,10.85
2022-12-29T00:17:59.820Z,8.88
2022-12-29T00:20:45.269Z,8.15
2022-12-29T00:23:31.034Z,8.48
2022-12-29T00:26:16.599Z,9.25
2022-12-29T00:29:03.308Z,9.25
2022-12-29T00:31:49.219Z,7.55
2022-12-29T00:34:34.987Z,9.60
2022-12-29T00:37:02.210Z,9.18
2022-12-29T00:39:47.848Z,10.55
2022-12-29T00:42:33.604Z,9.77
2022-12-29T00:45:00.683Z,9.02
2022-12-29T00:47:27.921Z,10.90
2022-12-29T00:49:54.957Z,10.30
2022-12-29T00:52:22.027Z,10.68
2022-12-29T00:54:49.047Z,8.77
2022-12-29T00:57:16.086Z,7.80
2022-12-29T00:59:46.446Z,9.02
2022-12-29T01:02:13.600Z,8.80
2022-12-29T01:04:40.656Z,8.23
2022-12-29T01:07:07.751Z,9.25
2022-12-29T01:09:53.460Z,8.05
2022-12-29T01:12:40.454Z,8.90
2022-12-29T01:15:10.027Z,7.40
2022-12-29T01:17:37.113Z,7.22
2022-12-29T01:20:05.274Z,7.60
2022-12-29T01:22:32.311Z,8.13
2022-12-29T01:24:59.453Z,8.52
2022-12-29T01:27:27.066Z,8.10
2022-12-29T01:29:54.114Z,7.53
2022-12-29T01:32:21.293Z,7.30
2022-12-29T01:34:48.292Z,7.45
2022-12-29T01:37:15.346Z,7.90
2022-12-29T01:39:42.390Z,8.77
2022-12-29T01:42:20.875Z,8.00
2022-12-29T01:44:58.160Z,7.38
2022-12-29T01:47:32.343Z,7.55
2022-12-29T01:50:10.334Z,7.57
2022-12-29T01:52:43.317Z,7.53
2022-12-29T01:55:12.041Z,7.70
2022-12-29T01:57:42.039Z,7.30
2022-12-29T02:00:12.548Z,6.90
2022-12-29T02:02:41.265Z,7.68
2022-12-29T02:05:34.680Z,7.45
2022-12-29T02:08:03.276Z,7.20
2022-12-29T02:10:33.988Z,7.65
2022-12-29T02:13:01.041Z,7.35
2022-12-29T02:15:37.156Z,7.70
2022-12-29T02:18:12.959Z,7.55
2022-12-29T02:20:59.265Z,7.95
2022-12-29T02:24:14.730Z,7.18
2022-12-29T02:26:54.965Z,7.88
2022-12-29T02:29:42.570Z,7.75
2022-12-29T02:32:16.452Z,7.13
2022-12-29T02:34:52.203Z,6.97
2022-12-29T02:37:27.772Z,7.78
2022-12-29T02:40:00.767Z,7.40
2022-12-29T02:42:51.894Z,7.15
2022-12-29T02:45:34.460Z,7.35
2022-12-29T02:48:31.403Z,8.00
2022-12-29T02:51:29.774Z,6.88
2022-12-29T02:54:16.836Z,7.70
2022-12-29T02:56:44.160Z,7.85
2022-12-29T02:59:12.836Z,6.50
2022-12-29T03:02:18.251Z,6.53
2022-12-29T03:05:03.822Z,7.25
2022-12-29T03:07:48.230Z,8.00
2022-12-29T03:10:47.775Z,7.60
2022-12-29T03:14:12.023Z,6.72
2022-12-29T03:17:20.073Z,7.97
2022-12-29T03:19:51.021Z,7.55
2022-12-29T03:22:31.847Z,7.35
2022-12-29T03:25:11.611Z,7.32
2022-12-29T03:27:50.424Z,6.78
2022-12-29T03:30:18.096Z,6.85
2022-12-29T03:32:51.538Z,6.40
2022-12-29T03:35:23.890Z,6.78
2022-12-29T03:38:23.671Z,7.45
2022-12-29T03:40:57.637Z,7.25
2022-12-29T03:43:25.789Z,7.13
2022-12-29T03:45:52.961Z,6.43
2022-12-29T03:48:20.134Z,7.72
2022-12-29T03:50:47.163Z,8.55
2022-12-29T03:53:14.162Z,7.50
2022-12-29T03:55:41.800Z,7.80
2022-12-29T03:58:08.925Z,7.38
2022-12-29T04:00:35.923Z,7.90
2022-12-29T04:03:03.179Z,7.00
2022-12-29T04:05:30.548Z,6.60
2022-12-29T04:07:57.614Z,7.30
2022-12-29T04:10:24.685Z,7.93
2022-12-29T04:12:51.770Z,6.68
2022-12-29T04:15:18.780Z,6.65
2022-12-29T04:17:45.857Z,8.10
2022-12-29T04:20:31.265Z,7.25
2022-12-29T04:23:03.121Z,7.00
2022-12-29T04:25:32.251Z,7.40
2022-12-29T04:27:59.489Z,7.50
2022-12-29T04:30:26.762Z,6.47
2022-12-29T04:32:53.782Z,6.43
2022-12-29T04:35:20.827Z,6.97
2022-12-29T04:37:47.850Z,7.25
2022-12-29T04:40:15.004Z,7.18
2022-12-29T04:42:41.998Z,8.00
2022-12-29T04:45:09.569Z,7.80
2022-12-29T04:47:36.552Z,7.28
2022-12-29T04:50:03.883Z,8.77
2022-12-29T04:52:30.879Z,8.02
2022-12-29T04:54:57.900Z,6.93
2022-12-29T04:57:25.091Z,7.43
2022-12-29T04:59:52.134Z,7.95
2022-12-29T05:02:19.424Z,8.35
2022-12-29T05:04:47.237Z,8.43
2022-12-29T05:07:14.307Z,7.20
2022-12-29T05:09:41.419Z,7.90
2022-12-29T05:12:08.630Z,7.68
2022-12-29T05:14:35.655Z,8.07
2022-12-29T05:17:02.726Z,8.00
2022-12-29T05:19:29.815Z,8.95
2022-12-29T05:21:56.817Z,8.50
2022-12-29T05:24:23.827Z,8.00
2022-12-29T05:26:50.990Z,7.20
2022-12-29T05:29:18.231Z,7.45
2022-12-29T05:31:45.327Z,8.52
2022-12-29T05:34:13.628Z,8.02
2022-12-29T05:36:41.647Z,6.80
2022-12-29T05:39:11.476Z,8.05
2022-12-29T05:41:38.551Z,8.10
2022-12-29T05:44:05.591Z,8.00
2022-12-29T05:46:32.735Z,7.75
2022-12-29T05:49:00.528Z,8.38
2022-12-29T05:51:27.615Z,7.63
2022-12-29T05:53:54.764Z,8.05
2022-12-29T05:56:21.818Z,8.43
2022-12-29T05:58:48.893Z,9.35
2022-12-29T06:01:15.916Z,9.07
2022-12-29T06:03:48.124Z,9.35
2022-12-29T06:06:15.983Z,9.50
2022-12-29T06:08:43.093Z,9.73
2022-12-29T06:11:10.407Z,9.30
2022-12-29T06:13:37.591Z,10.75
2022-12-29T06:16:04.862Z,12.32
2022-12-29T06:18:31.995Z,10.65
2022-12-29T06:21:03.408Z,12.32
2022-12-29T06:23:30.623Z,10.95
2022-12-29T06:25:58.713Z,11.90
2022-12-29T06:28:25.842Z,13.05
2022-12-29T06:30:53.145Z,12.50
2022-12-29T06:33:20.259Z,12.48
2022-12-29T06:35:47.294Z,11.68
2022-12-29T06:38:14.445Z,11.30
2022-12-29T06:40:43.241Z,12.05
2022-12-29T06:43:10.386Z,11.40
2022-12-29T06:45:41.223Z,11.13
2022-12-29T06:48:08.959Z,11.32
2022-12-29T06:50:36.127Z,11.98
2022-12-29T06:53:03.342Z,12.88
2022-12-29T06:55:30.582Z,12.50
2022-12-29T06:57:58.915Z,11.02
2022-12-29T07:00:26.916Z,11.35
2022-12-29T07:02:57.768Z,11.90
2022-12-29T07:05:28.916Z,11.07
2022-12-29T07:07:56.457Z,10.65
2022-12-29T07:10:23.999Z,11.40
2022-12-29T07:12:51.129Z,10.38
2022-12-29T07:15:18.290Z,11.13
2022-12-29T07:17:45.332Z,11.68
2022-12-29T07:20:12.601Z,10.45
2022-12-29T07:22:39.857Z,10.30
2022-12-29T07:25:07.101Z,10.38
2022-12-29T07:27:34.145Z,11.23
2022-12-29T07:30:01.136Z,11.48
2022-12-29T07:32:28.173Z,11.43
2022-12-29T07:34:55.292Z,11.23
2022-12-29T07:37:22.303Z,11.10
2022-12-29T07:39:49.322Z,12.13
2022-12-29T07:42:16.370Z,13.00
2022-12-29T07:44:44.780Z,13.30
2022-12-29T07:47:11.846Z,13.45
2022-12-29T07:49:38.985Z,12.70
2022-12-29T07:52:06.073Z,13.35
2022-12-29T07:54:33.104Z,13.85
2022-12-29T07:57:01.397Z,13.57
2022-12-29T07:59:28.522Z,10.70
2022-12-29T08:01:55.639Z,11.60
2022-12-29T08:04:23.034Z,13.40
2022-12-29T08:06:51.359Z,11.00
2022-12-29T08:09:22.651Z,11.80
2022-12-29T08:11:51.373Z,11.32
2022-12-29T08:14:18.525Z,10.75
2022-12-29T08:16:45.662Z,11.82
2022-12-29T08:19:13.644Z,11.10
2022-12-29T08:21:40.828Z,13.10
2022-12-29T08:24:09.429Z,12.93
2022-12-29T08:26:36.493Z,11.93
2022-12-29T08:29:03.563Z,11.32
2022-12-29T08:31:30.790Z,13.65
2022-12-29T08:33:57.920Z,12.45
2022-12-29T08:36:24.967Z,12.52
2022-12-29T08:38:52.012Z,12.82
2022-12-29T08:41:19.125Z,12.13
2022-12-29T08:43:50.436Z,12.38
2022-12-29T08:46:18.166Z,11.70
2022-12-29T08:48:45.405Z,13.38
2022-12-29T08:51:12.742Z,13.50
2022-12-29T08:53:39.898Z,13.85
2022-12-29T08:56:07.941Z,11.98
2022-12-29T08:58:35.026Z,14.30
2022-12-29T09:01:02.082Z,13.43
2022-12-29T09:04:12.213Z,13.20
2022-12-29T09:06:18.632Z,14.70
2022-12-29T09:08:46.256Z,14.82
2022-12-29T09:11:20.437Z,13.10
2022-12-29T09:13:47.940Z,13.55
2022-12-29T09:16:16.431Z,12.85
2022-12-29T09:18:43.523Z,13.55
2022-12-29T09:21:12.070Z,13.77
2022-12-29T09:23:39.299Z,12.93
2022-12-29T09:26:06.595Z,12.50
2022-12-29T09:28:33.671Z,13.60
2022-12-29T09:31:01.248Z,13.10
2022-12-29T09:33:28.937Z,14.05
2022-12-29T09:35:58.806Z,12.00
2022-12-29T09:38:27.971Z,13.85
2022-12-29T09:41:13.254Z,13.77
2022-12-29T09:44:08.434Z,13.27
2022-12-29T09:46:51.516Z,13.32
2022-12-29T09:49:51.028Z,13.15
2022-12-29T09:52:23.880Z,14.10
2022-12-29T09:55:02.411Z,12.75
2022-12-29T09:57:39.815Z,11.80
2022-12-29T10:00:19.992Z,13.93
2022-12-29T10:02:53.297Z,12.80
2022-12-29T10:05:38.265Z,12.70
2022-12-29T10:08:36.289Z,12.88
2022-12-29T10:11:28.095Z,11.55
2022-12-29T10:14:22.487Z,13.10
2022-12-29T10:16:57.694Z,13.32
2022-12-29T10:19:48.782Z,11.10
2022-12-29T10:22:45.783Z,12.57
2022-12-29T10:25:19.745Z,11.98
2022-12-29T10:27:59.752Z,11.90
2022-12-29T10:30:27.235Z,14.00
2022-12-29T10:33:02.347Z,14.68
2022-12-29T10:35:41.719Z,11.77
2022-12-29T10:38:32.090Z,12.95
2022-12-29T10:41:06.826Z,11.65
2022-12-29T10:43:47.926Z,12.80
2022-12-29T10:46:30.436Z,12.82
2022-12-29T10:48:57.554Z,13.52
2022-12-29T10:51:29.614Z,11.55
2022-12-29T10:54:06.176Z,12.30
2022-12-29T10:56:39.098Z,12.48
2022-12-29T10:59:22.756Z,13.18
2022-12-29T11:02:21.924Z,13.50
2022-12-29T11:05:10.006Z,15.18
2022-12-29T11:07:37.973Z,12.38
2022-12-29T11:10:21.568Z,13.68
2022-12-29T11:13:23.254Z,13.50
2022-12-29T11:15:51.958Z,14.27
2022-12-29T11:18:38.782Z,14.20
2022-12-29T11:21:08.548Z,13.82
2022-12-29T11:23:41.084Z,16.00
2022-12-29T11:26:25.328Z,15.85
2022-12-29T11:29:09.664Z,15.98
2022-12-29T11:31:48.694Z,15.50
2022-12-29T11:34:33.843Z,14.15
2022-12-29T11:37:18.916Z,14.32
2022-12-29T11:39:48.734Z,14.40
2022-12-29T11:42:19.106Z,16.35
2022-12-29T11:44:48.666Z,15.70
2022-12-29T11:47:37.607Z,16.48
2022-12-29T11:50:09.348Z,15.93
2022-12-29T11:52:40.906Z,17.25
2022-12-29T11:55:23.466Z,16.30
2022-12-29T11:57:53.333Z,15.60
2022-12-29T12:00:26.190Z,16.45
2022-12-29T12:03:28.165Z,17.40
2022-12-29T12:05:55.413Z,17.63
2022-12-29T12:08:45.305Z,17.33
2022-12-29T12:11:23.883Z,15.50
2022-12-29T12:14:26.621Z,15.60
2022-12-29T12:17:21.835Z,17.42
2022-12-29T12:20:11.631Z,18.15
2022-12-29T12:22:50.858Z,19.08
2022-12-29T12:25:56.359Z,17.95
2022-12-29T12:28:36.959Z,18.50
2022-12-29T12:31:16.916Z,18.73
2022-12-29T12:33:49.491Z,18.20
2022-12-29T12:36:34.762Z,19.58
2022-12-29T12:39:23.923Z,20.83
2022-12-29T12:42:16.467Z,17.88
2022-12-29T12:44:49.267Z,17.88
2022-12-29T12:47:34.212Z,19.25
2022-12-29T12:50:22.727Z,17.40
2022-12-29T12:52:58.697Z,17.10
2022-12-29T12:55:53.456Z,16.30
2022-12-29T12:58:30.663Z,17.75
2022-12-29T13:01:26.262Z,17.38
2022-12-29T13:04:14.335Z,17.48
2022-12-29T13:07:03.795Z,17.45
2022-12-29T13:09:46.337Z,17.45
2022-12-29T13:12:51.552Z,19.00
2022-12-29T13:15:38.729Z,17.95
2022-12-29T13:18:05.817Z,19.23
2022-12-29T13:21:01.686Z,18.38
2022-12-29T13:23:51.071Z,17.58
2022-12-29T13:26:45.581Z,17.17
2022-12-29T13:29:30.551Z,16.67
2022-12-29T13:32:25.102Z,17.20
2022-12-29T13:35:06.017Z,17.17
2022-12-29T13:37:36.388Z,17.23
2022-12-29T13:40:14.640Z,17.83
2022-12-29T13:42:43.245Z,18.33
2022-12-29T13:45:18.556Z,16.08
2022-12-29T13:48:20.527Z,17.65
2022-12-29T13:50:59.645Z,18.13
2022-12-29T13:53:38.002Z,17.23
2022-12-29T13:56:11.900Z,15.95
2022-12-29T13:58:43.229Z,18.35
2022-12-29T14:01:13.629Z,16.48
2022-12-29T14:03:55.922Z,17.50
2022-12-29T14:06:29.565Z,16.88
2022-12-29T14:09:30.407Z,17.08
2022-12-29T14:12:02.329Z,16.60
2022-12-29T14:14:31.724Z,15.40
2022-12-29T14:17:15.098Z,18.15
2022-12-29T14:19:46.314Z,18.13
2022-12-29T14:22:13.971Z,18.67
2022-12-29T14:24:44.875Z,17.40
2022-12-29T14:27:11.970Z,18.13
2022-12-29T14:29:41.858Z,17.00
2022-12-29T14:32:27.211Z,18.10
2022-12-29T14:34:59.288Z,18.65
2022-12-29T14:37:35.410Z,19.73
2022-12-29T14:40:19.134Z,18.10
2022-12-29T14:42:57.012Z,16.63
2022-12-29T14:45:30.159Z,17.10
2022-12-29T14:47:57.984Z,15.60
2022-12-29T14:50:44.785Z,17.48
2022-12-29T14:53:47.854Z,17.13
2022-12-29T14:56:18.804Z,15.57
2022-12-29T14:58:56.778Z,16.02
2022-12-29T15:01:48.812Z,16.35
2022-12-29T15:04:24.093Z,15.77
2022-12-29T15:06:55.170Z,15.82
2022-12-29T15:09:51.961Z,15.65
2022-12-29T15:12:47.977Z,16.83
2022-12-29T15:15:41.309Z,16.38
2022-12-29T15:18:30.168Z,14.90
2022-12-29T15:21:13.972Z,14.98
2022-12-29T15:23:43.399Z,16.67
2022-12-29T15:26:11.467Z,16.75
2022-12-29T15:28:47.468Z,16.90
2022-12-29T15:31:30.145Z,15.93
2022-12-29T15:34:12.642Z,15.48
2022-12-29T15:36:41.414Z,16.25
2022-12-29T15:39:41.913Z,17.38
2022-12-29T15:42:49.808Z,16.15
2022-12-29T15:45:17.560Z,17.15
2022-12-29T15:47:49.992Z,16.52
2022-12-29T15:50:32.621Z,16.13
2022-12-29T15:53:00.525Z,17.02
2022-12-29T15:55:36.093Z,16.20
2022-12-29T15:58:19.750Z,17.35
2022-12-29T16:00:54.217Z,15.82
2022-12-29T16:03:24.012Z,16.45
2022-12-29T16:05:59.157Z,14.98
2022-12-29T16:08:34.855Z,16.70
2022-12-29T16:11:05.348Z,15.45
2022-12-29T16:13:40.395Z,15.48
2022-12-29T16:16:22.635Z,16.58
2022-12-29T16:18:57.406Z,15.80
2022-12-29T16:21:30.145Z,15.75
2022-12-29T16:24:04.238Z,16.75
2022-12-29T16:26:31.288Z,16.60
2022-12-29T16:29:02.438Z,15.70
2022-12-29T16:31:52.542Z,16.20
2022-12-29T16:34:46.331Z,15.77
2022-12-29T16:37:32.756Z,16.08
2022-12-29T16:40:21.464Z,15.20
2022-12-29T16:42:52.352Z,15.38
2022-12-29T16:45:19.689Z,17.15
2022-12-29T16:48:05.790Z,14.90
2022-12-29T16:50:37.889Z,15.65
2022-12-29T16:53:06.670Z,15.10
2022-12-29T16:55:34.092Z,18.05
2022-12-29T16:58:01.845Z,13.88
2022-12-29T17:00:34.818Z,13.57
2022-12-29T17:03:02.998Z,15.63
2022-12-29T17:05:30.220Z,14.20
2022-12-29T17:08:02.017Z,15.43
2022-12-29T17:10:48.577Z,15.10
2022-12-29T17:13:15.630Z,14.15
2022-12-29T17:15:43.415Z,14.55
2022-12-29T17:18:14.322Z,15.02
2022-12-29T17:20:42.368Z,13.60
2022-12-29T17:23:19.968Z,14.93
2022-12-29T17:25:55.278Z,13.40
2022-12-29T17:28:32.763Z,14.60
2022-12-29T17:31:06.126Z,15.63
2022-12-29T17:33:42.975Z,14.27
2022-12-29T17:36:11.471Z,13.90
2022-12-29T17:38:38.731Z,13.25
2022-12-29T17:41:14.655Z,14.35
2022-12-29T17:43:41.766Z,14.38
2022-12-29T17:46:09.247Z,15.07
2022-12-29T17:48:36.600Z,14.73
2022-12-29T17:51:03.773Z,14.98
2022-12-29T17:53:31.594Z,13.85
2022-12-29T17:55:58.883Z,14.65
2022-12-29T17:58:29.052Z,15.00
2022-12-29T18:00:59.834Z,14.85
2022-12-29T18:03:36.502Z,14.35
2022-12-29T18:06:06.757Z,15.60
2022-12-29T18:08:38.983Z,14.80
2022-12-29T18:11:27.025Z,14.38
2022-12-29T18:13:54.547Z,15.07
2022-12-29T18:16:23.427Z,15.05
2022-12-29T18:18:50.809Z,16.23
2022-12-29T18:21:21.061Z,16.17
2022-12-29T18:23:49.261Z,13.70
2022-12-29T18:26:27.700Z,14.45
2022-12-29T18:28:56.490Z,13.57
2022-12-29T18:31:29.875Z,13.20
2022-12-29T18:33:58.855Z,14.38
2022-12-29T18:36:27.031Z,13.98
2022-12-29T18:38:55.145Z,14.38
2022-12-29T18:41:24.926Z,14.43
2022-12-29T18:43:52.212Z,15.73
2022-12-29T18:46:23.023Z,15.00
2022-12-29T18:48:51.729Z,14.05
2022-12-29T18:51:21.864Z,14.40
2022-12-29T18:53:49.504Z,13.55
2022-12-29T18:56:16.647Z,14.93
2022-12-29T18:58:43.723Z,14.23
2022-12-29T19:01:23.815Z,15.50
2022-12-29T19:03:51.682Z,13.07
2022-12-29T19:06:21.545Z,14.68
2022-12-29T19:08:48.735Z,13.43
2022-12-29T19:11:15.968Z,14.30
2022-12-29T19:13:43.282Z,16.02
2022-12-29T19:16:19.633Z,14.38
2022-12-29T19:18:58.120Z,13.43
2022-12-29T19:21:33.996Z,13.75
2022-12-29T19:24:01.170Z,14.85
2022-12-29T19:26:30.257Z,14.95
2022-12-29T19:28:58.590Z,15.45
2022-12-29T19:31:26.206Z,15.32
2022-12-29T19:33:53.866Z,17.25
2022-12-29T19:36:22.303Z,16.52
2022-12-29T19:38:49.657Z,24.40
2022-12-29T19:41:16.843Z,19.17
2022-12-29T19:43:44.117Z,17.45
2022-12-29T19:46:15.328Z,17.80
2022-12-29T19:48:42.701Z,18.05
2022-12-29T19:51:13.522Z,15.90
2022-12-29T19:53:40.655Z,17.15
2022-12-29T19:56:09.475Z,15.00
2022-12-29T19:58:42.599Z,17.15
2022-12-29T20:01:16.270Z,17.58
2022-12-29T20:03:43.683Z,16.95
2022-12-29T20:06:12.182Z,16.67
2022-12-29T20:08:40.905Z,16.58
2022-12-29T20:11:13.390Z,16.20
2022-12-29T20:13:41.143Z,17.08
2022-12-29T20:16:12.255Z,18.65
2022-12-29T20:18:40.261Z,16.88
2022-12-29T20:21:09.680Z,18.88
2022-12-29T20:23:38.710Z,15.43
2022-12-29T20:26:09.289Z,14.95
2022-12-29T20:28:36.486Z,14.95
2022-12-29T20:31:08.286Z,14.48
2022-12-29T20:33:36.119Z,16.58
2022-12-29T20:36:17.846Z,14.10
2022-12-29T20:38:45.900Z,14.27
2022-12-29T20:41:14.206Z,14.90
2022-12-29T20:43:42.220Z,16.98
2022-12-29T20:46:09.948Z,17.15
2022-12-29T20:48:37.928Z,16.90
2022-12-29T20:51:05.151Z,17.55
2022-12-29T20:53:33.639Z,14.80
2022-12-29T20:56:04.512Z,15.00
2022-12-29T20:58:32.380Z,15.60
2022-12-29T21:01:05.334Z,14.52
2022-12-29T21:03:32.721Z,16.85
2022-12-29T21:06:00.589Z,15.75
2022-12-29T21:08:30.671Z,17.13
2022-12-29T21:10:59.180Z,17.45
2022-12-29T21:13:27.116Z,16.85
2022-12-29T21:16:00.097Z,16.38
2022-12-29T21:18:28.837Z,17.15
2022-12-29T21:21:14.667Z,18.55
2022-12-29T21:23:41.791Z,16.40
2022-12-29T21:26:10.076Z,16.60
2022-12-29T21:28:41.659Z,16.13
2022-12-29T21:31:11.165Z,15.20
2022-12-29T21:33:38.681Z,14.43
2022-12-29T21:36:08.109Z,14.43
2022-12-29T21:38:36.136Z,15.68
2022-12-29T21:41:11.404Z,14.43
2022-12-29T21:43:39.172Z,15.80
2022-12-29T21:46:07.448Z,16.15
2022-12-29T21:48:34.881Z,17.42
2022-12-29T21:51:32.554Z,16.95
2022-12-29T21:54:20.702Z,16.13
2022-12-29T21:56:49.028Z,16.38
2022-12-29T21:59:35.598Z,15.90
2022-12-29T22:02:23.234Z,17.48
2022-12-29T22:05:09.324Z,18.52
2022-12-29T22:07:55.594Z,16.92
2022-12-29T22:10:41.252Z,17.77
2022-12-29T22:13:08.280Z,15.80
2022-12-29T22:15:40.409Z,16.33
2022-12-29T22:18:07.560Z,16.90
2022-12-29T22:20:36.597Z,19.10
2022-12-29T22:23:03.931Z,17.20
2022-12-29T22:25:31.123Z,17.02
2022-12-29T22:27:59.968Z,17.40
2022-12-29T22:30:30.335Z,16.08
2022-12-29T22:32:59.113Z,15.98
2022-12-29T22:35:26.222Z,16.70
2022-12-29T22:37:53.314Z,16.88
2022-12-29T22:40:20.711Z,16.45
2022-12-29T22:42:47.931Z,18.75
2022-12-29T22:45:15.120Z,16.73
2022-12-29T22:47:42.125Z,16.23
2022-12-29T22:50:10.197Z,18.30
2022-12-29T22:52:37.334Z,17.10
2022-12-29T22:55:07.232Z,16.92
2022-12-29T22:57:35.525Z,16.85
2022-12-29T23:00:04.549Z,15.75
2022-12-29T23:02:31.778Z,16.65
2022-12-29T23:05:03.698Z,17.30
2022-12-29T23:07:32.271Z,17.15
2022-12-29T23:09:59.602Z,17.05
2022-12-29T23:12:30.563Z,17.73
2022-12-29T23:14:57.688Z,16.92
2022-12-29T23:17:25.476Z,16.98
2022-12-29T23:19:52.617Z,17.10
2022-12-29T23:22:20.170Z,17.77
2022-12-29T23:24:47.214Z,15.52
2022-12-29T23:27:14.326Z,15.77
2022-12-29T23:29:41.349Z,15.68
2022-12-29T23:32:08.499Z,17.05
2022-12-29T23:34:35.538Z,17.50
2022-12-29T23:37:02.603Z,16.20
2022-12-29T23:39:29.785Z,17.70
2022-12-29T23:41:57.554Z,16.13
2022-12-29T23:44:24.725Z,17.70
2022-12-29T23:46:51.868Z,16.15
2022-12-29T23:49:19.147Z,14.95
2022-12-29T23:51:46.169Z,14.82
2022-12-29T23:54:13.395Z,15.13
2022-12-29T23:56:40.398Z,15.90
2022-12-29T23:59:07.544Z,16.20
